createdAt,value
2022-08-18T08:11:44.726Z,8.53
2022-08-18T08:14:35.686Z,9.57
2022-08-18T08:17:37.533Z,9.77
2022-08-18T08:20:49.728Z,9.63
2022-08-18T08:23:25.369Z,9.17
2022-08-18T08:26:27.020Z,7.77
2022-08-18T08:29:12.536Z,9.30
2022-08-18T08:32:05.065Z,8.33
2022-08-18T08:35:05.135Z,10.03
2022-08-18T08:38:40.050Z,8.63
2022-08-18T08:41:39.366Z,9.97
2022-08-18T08:48:53.700Z,5.93
2022-08-18T08:55:09.434Z,8.97
2022-08-18T08:57:42.993Z,7.43
2022-08-18T09:00:15.032Z,7.57
2022-08-18T09:02:48.711Z,7.80
2022-08-18T09:05:41.531Z,8.67
2022-08-18T09:08:26.834Z,6.00
2022-08-18T09:11:40.030Z,6.40
2022-08-18T09:14:33.172Z,6.70
2022-08-18T09:17:20.620Z,6.30
2022-08-18T09:19:53.769Z,5.60
2022-08-18T09:22:29.956Z,5.40
2022-08-18T09:24:57.583Z,4.90
2022-08-18T09:28:09.929Z,5.90
2022-08-18T09:31:07.217Z,6.60
2022-08-18T09:33:45.031Z,5.40
2022-08-18T09:36:36.744Z,5.80
2022-08-18T09:39:25.121Z,5.10
2022-08-18T09:41:57.024Z,6.17
2022-08-18T09:44:48.800Z,4.20
2022-08-18T09:47:23.756Z,4.33
2022-08-18T09:50:04.536Z,4.13
2022-08-18T09:52:37.435Z,4.70
2022-08-18T09:55:16.693Z,7.53
2022-08-18T09:57:44.850Z,5.00
2022-08-18T10:00:16.741Z,6.30
2022-08-18T10:02:48.688Z,5.50
2022-08-18T10:05:17.057Z,4.87
2022-08-18T10:08:03.959Z,5.10
2022-08-18T10:11:01.579Z,5.13
2022-08-18T10:13:49.007Z,5.03
2022-08-18T10:16:21.825Z,5.10
2022-08-18T10:19:00.911Z,5.60
2022-08-18T10:21:49.758Z,5.80
2022-08-18T10:24:38.103Z,5.50
2022-08-18T10:27:33.151Z,5.07
2022-08-18T10:30:01.096Z,6.37
2022-08-18T10:32:41.259Z,4.77
2022-08-18T10:35:40.638Z,4.90
2022-08-18T10:38:49.347Z,5.40
2022-08-18T10:41:25.574Z,5.33
2022-08-18T10:43:57.892Z,6.00
2022-08-18T10:46:42.565Z,6.63
2022-08-18T10:49:14.099Z,5.43
2022-08-18T10:55:14.652Z,5.67
2022-08-18T10:58:04.777Z,5.13
2022-08-18T11:00:57.417Z,5.30
2022-08-18T11:03:51.207Z,5.53
2022-08-18T11:06:24.726Z,5.37
2022-08-18T11:08:57.798Z,5.10
2022-08-18T11:11:53.083Z,7.77
2022-08-18T11:14:45.427Z,5.27
2022-08-18T11:17:29.146Z,6.10
2022-08-18T11:19:57.319Z,6.30
2022-08-18T11:22:32.457Z,5.90
2022-08-18T11:25:03.219Z,4.60
2022-08-18T11:27:37.212Z,6.63
2022-08-18T11:30:09.803Z,6.47
2022-08-18T11:32:51.519Z,5.50
2022-08-18T11:35:24.068Z,4.80
2022-08-18T11:38:00.075Z,4.73
2022-08-18T11:41:09.729Z,4.70
2022-08-18T11:43:42.095Z,5.63
2022-08-18T11:46:29.711Z,4.77
2022-08-18T11:49:15.554Z,5.13
2022-08-18T11:52:14.271Z,4.67
2022-08-18T11:54:53.073Z,4.80
2022-08-18T11:57:46.415Z,5.60
2022-08-18T12:00:36.748Z,3.67
2022-08-18T12:03:19.786Z,7.13
2022-08-18T12:05:56.562Z,4.87
2022-08-18T12:08:54.529Z,3.90
2022-08-18T12:11:26.885Z,4.30
2022-08-18T12:14:01.955Z,4.47
2022-08-18T12:16:50.236Z,3.93
2022-08-18T12:22:16.146Z,4.40
2022-08-18T12:24:46.590Z,3.83
2022-08-18T12:27:24.252Z,4.17
2022-08-18T12:30:01.800Z,4.67
2022-08-18T12:32:50.619Z,5.90
2022-08-18T12:35:27.568Z,5.17
2022-08-18T12:38:13.467Z,6.57
2022-08-18T12:40:42.379Z,5.30
2022-08-18T12:43:34.074Z,5.43
2022-08-18T12:46:01.317Z,5.60
2022-08-18T12:48:31.674Z,5.43
2022-08-18T12:51:00.742Z,6.57
2022-08-18T12:53:29.596Z,8.60
2022-08-18T12:56:30.409Z,13.70
2022-08-18T12:59:04.030Z,7.80
2022-08-18T13:01:32.838Z,8.40
2022-08-18T13:04:12.520Z,7.13
2022-08-18T13:06:58.893Z,10.53
2022-08-18T13:09:53.253Z,7.73
2022-08-18T13:13:45.535Z,8.90
2022-08-18T13:23:55.564Z,9.67
2022-08-18T13:27:37.592Z,8.30
2022-08-18T13:37:24.269Z,11.20
2022-08-18T13:39:55.718Z,8.37
2022-08-18T13:43:03.104Z,9.17
2022-08-18T13:49:29.869Z,7.50
2022-08-18T13:51:43.392Z,8.60
2022-08-18T15:15:50.516Z,10.53
2022-08-18T15:26:26.831Z,8.87
2022-08-18T18:35:53.244Z,2.50
2022-08-18T20:12:20.557Z,3.87
